Susanne — DETY — position and weather

sailwx.info

Track history (hours):
 
Tides and Currents Weather Stations Pressure Air Temp Water Temp Dewpoint Dewpoint Depression Visibility Wind Speed Wind Dir Waves Ship Positions

Susanne

Last reported at 2015-Jan-22 21:33 UTC. Time now 2015-Jan-25 10:21 UTC.
Position N 57°07' E 008°36'.

Length 40 m; draft 5 m.

Type: Fishing. MMSI: 211227510.

Date/timePositionNaut miles runAvg speedWind from/ knotsBaromVisibWave heightAir tempDewpointWater temp
2015-Jan-22 21:33N 57°07' E 008°36'0 0.1
2015-Jan-22 20:32N 57°07' E 008°36'0 0.0
2015-Jan-22 19:31N 57°07' E 008°36'84 4.2
2015-Jan-21 23:28N 57°40' E 006°13'15 3.6
2015-Jan-21 19:12N 57°47' E 005°47'26 3.4
2015-Jan-21 11:33N 58°01' E 005°06'3 2.7
2015-Jan-21 10:32N 58°03' E 005°02'  
2015-Jan-16 22:33N 57°19' E 007°59'8 8.0
2015-Jan-16 21:33N 57°14' E 008°12'9 8.6
2015-Jan-16 20:33N 57°11' E 008°26'6 0.3
2015-Jan-15 22:32N 57°07' E 008°35'0 0.0
2015-Jan-15 21:33N 57°07' E 008°35'0 0.0
2015-Jan-15 20:32N 57°07' E 008°35'0 0.0
2015-Jan-15 19:33N 57°07' E 008°35'55 3.5
2015-Jan-15 04:09N 56°20' E 007°45'9611.2
2015-Jan-14 19:33N 54°44' E 007°43'1212.0
2015-Jan-14 18:34N 54°33' E 007°51'1211.5
2015-Jan-14 17:34N 54°22' E 007°56'1110.9
2015-Jan-14 16:33N 54°12' E 008°04'1010.5
2015-Jan-14 15:34N 54°03' E 008°13'10 9.8
2015-Jan-14 14:34N 53°59' E 008°29'1110.5
2015-Jan-14 13:34N 53°52' E 008°43'1 0.7
2015-Jan-14 12:34N 53°52' E 008°43'0 0.0
2015-Jan-14 11:33N 53°52' E 008°43'0 0.0
2015-Jan-14 10:33N 53°52' E 008°43'0 0.0
2015-Jan-14 09:33N 53°52' E 008°43'0 0.2
2015-Jan-14 08:34N 53°52' E 008°43'0 0.2
2015-Jan-14 07:33N 53°52' E 008°43'0 0.0
2015-Jan-14 06:34N 53°52' E 008°43'0 0.0
2015-Jan-14 05:34N 53°52' E 008°43'0 0.0
2015-Jan-14 04:33N 53°52' E 008°43'0 0.0
2015-Jan-14 03:33N 53°52' E 008°43'0 0.0
2015-Jan-14 02:33N 53°52' E 008°43'0 0.0
2015-Jan-14 01:33N 53°52' E 008°43'0 0.0
2015-Jan-14 00:34N 53°52' E 008°43'0 0.0
2015-Jan-13 23:34N 53°52' E 008°43'0 0.0
2015-Jan-13 22:34N 53°52' E 008°43'0 0.0
2015-Jan-13 21:33N 53°52' E 008°43'0 0.0
2015-Jan-13 20:33N 53°52' E 008°43'0 0.0
2015-Jan-13 19:33N 53°52' E 008°43'1 1.0
2015-Jan-13 18:33N 53°53' E 008°42'1010.3
2015-Jan-13 17:33N 53°59' E 008°28'1010.4
2015-Jan-13 16:34N 54°04' E 008°13'1111.5
2015-Jan-13 15:33N 54°15' E 008°06'5 4.7
2015-Jan-13 14:33N 54°18' E 008°00'7 6.9
2015-Jan-13 13:34N 54°24' E 007°55'1110.6
2015-Jan-13 12:33N 54°14' E 008°02'1010.4
2015-Jan-13 11:33N 54°05' E 008°10'1010.4
2015-Jan-13 10:34N 53°60' E 008°25'1312.7
2015-Jan-13 09:34N 53°53' E 008°43'1 1.0
2015-Jan-13 08:33N 53°52' E 008°43'0 0.0
2015-Jan-13 07:33N 53°52' E 008°43'0 0.0
2015-Jan-13 06:33N 53°52' E 008°43'0 0.0
2015-Jan-13 05:33N 53°52' E 008°43'0 0.0
2015-Jan-13 04:34N 53°52' E 008°43'0 0.0
2015-Jan-13 03:33N 53°52' E 008°43'0 0.0
2015-Jan-13 02:33N 53°52' E 008°43'0 0.0
2015-Jan-13 01:33N 53°52' E 008°43'0 0.0
2015-Jan-13 00:33N 53°52' E 008°43'0 0.0
2015-Jan-12 23:34N 53°52' E 008°43'0 0.0
2015-Jan-12 22:33N 53°52' E 008°43'0 0.0
2015-Jan-12 21:33N 53°52' E 008°43'  
Track history (hours):
 
Tides and Currents Weather Stations Pressure Air Temp Water Temp Dewpoint Dewpoint Depression Visibility Wind Speed Wind Dir Waves Ship Positions

Susanne

Last reported at 2015-Jan-22 21:33 UTC. Time now 2015-Jan-25 10:21 UTC.
Position N 57°07' E 008°36'.

Length 40 m; draft 5 m.

Type: Fishing. MMSI: 211227510.

Date/timePositionNaut miles runAvg speedWind from/ knotsBaromVisibWave heightAir tempDewpointWater temp
2015-Jan-22 21:33N 57°07' E 008°36'0 0.1
2015-Jan-22 20:32N 57°07' E 008°36'0 0.0
2015-Jan-22 19:31N 57°07' E 008°36'84 4.2
2015-Jan-21 23:28N 57°40' E 006°13'15 3.6
2015-Jan-21 19:12N 57°47' E 005°47'26 3.4
2015-Jan-21 11:33N 58°01' E 005°06'3 2.7
2015-Jan-21 10:32N 58°03' E 005°02'  
2015-Jan-16 22:33N 57°19' E 007°59'8 8.0
2015-Jan-16 21:33N 57°14' E 008°12'9 8.6
2015-Jan-16 20:33N 57°11' E 008°26'6 0.3
2015-Jan-15 22:32N 57°07' E 008°35'0 0.0
2015-Jan-15 21:33N 57°07' E 008°35'0 0.0
2015-Jan-15 20:32N 57°07' E 008°35'0 0.0
2015-Jan-15 19:33N 57°07' E 008°35'55 3.5
2015-Jan-15 04:09N 56°20' E 007°45'9611.2
2015-Jan-14 19:33N 54°44' E 007°43'1212.0
2015-Jan-14 18:34N 54°33' E 007°51'1211.5
2015-Jan-14 17:34N 54°22' E 007°56'1110.9
2015-Jan-14 16:33N 54°12' E 008°04'1010.5
2015-Jan-14 15:34N 54°03' E 008°13'10 9.8
2015-Jan-14 14:34N 53°59' E 008°29'1110.5
2015-Jan-14 13:34N 53°52' E 008°43'1 0.7
2015-Jan-14 12:34N 53°52' E 008°43'0 0.0
2015-Jan-14 11:33N 53°52' E 008°43'0 0.0
2015-Jan-14 10:33N 53°52' E 008°43'0 0.0
2015-Jan-14 09:33N 53°52' E 008°43'0 0.2
2015-Jan-14 08:34N 53°52' E 008°43'0 0.2
2015-Jan-14 07:33N 53°52' E 008°43'0 0.0
2015-Jan-14 06:34N 53°52' E 008°43'0 0.0
2015-Jan-14 05:34N 53°52' E 008°43'0 0.0
2015-Jan-14 04:33N 53°52' E 008°43'0 0.0
2015-Jan-14 03:33N 53°52' E 008°43'0 0.0
2015-Jan-14 02:33N 53°52' E 008°43'0 0.0
2015-Jan-14 01:33N 53°52' E 008°43'0 0.0
2015-Jan-14 00:34N 53°52' E 008°43'0 0.0
2015-Jan-13 23:34N 53°52' E 008°43'0 0.0
2015-Jan-13 22:34N 53°52' E 008°43'0 0.0
2015-Jan-13 21:33N 53°52' E 008°43'0 0.0
2015-Jan-13 20:33N 53°52' E 008°43'0 0.0
2015-Jan-13 19:33N 53°52' E 008°43'1 1.0
2015-Jan-13 18:33N 53°53' E 008°42'1010.3
2015-Jan-13 17:33N 53°59' E 008°28'1010.4
2015-Jan-13 16:34N 54°04' E 008°13'1111.5
2015-Jan-13 15:33N 54°15' E 008°06'5 4.7
2015-Jan-13 14:33N 54°18' E 008°00'7 6.9
2015-Jan-13 13:34N 54°24' E 007°55'1110.6
2015-Jan-13 12:33N 54°14' E 008°02'1010.4
2015-Jan-13 11:33N 54°05' E 008°10'1010.4
2015-Jan-13 10:34N 53°60' E 008°25'1312.7
2015-Jan-13 09:34N 53°53' E 008°43'1 1.0
2015-Jan-13 08:33N 53°52' E 008°43'0 0.0
2015-Jan-13 07:33N 53°52' E 008°43'0 0.0
2015-Jan-13 06:33N 53°52' E 008°43'0 0.0
2015-Jan-13 05:33N 53°52' E 008°43'0 0.0
2015-Jan-13 04:34N 53°52' E 008°43'0 0.0
2015-Jan-13 03:33N 53°52' E 008°43'0 0.0
2015-Jan-13 02:33N 53°52' E 008°43'0 0.0
2015-Jan-13 01:33N 53°52' E 008°43'0 0.0
2015-Jan-13 00:33N 53°52' E 008°43'0 0.0
2015-Jan-12 23:34N 53°52' E 008°43'0 0.0
2015-Jan-12 22:33N 53°52' E 008°43'0 0.0
2015-Jan-12 21:33N 53°52' E 008°43'  

Dump ship's entire track history